Time;durP1;ratioP1;P1;durP2;ratioP2;P2;SDS_P1;SDS_P2;PMS_P1;PMS_P2;Temp;Humidity;BMP_temperature;BMP_pressure;BME280_temperature;BME280_humidity;BME280_pressure;Samples;Min_cycle;Max_cycle;Signal;HPM_P1;HPM_P2
2020/12/04 00:01:01;;;;;;;19.23;14.05;;;-2.40;99.90;;;;;;4944537;28;20463;-46
2020/12/04 00:03:26;;;;;;;18.60;13.32;;;-2.30;99.90;;;;;;4945043;28;20417;-47
2020/12/04 00:05:52;;;;;;;20.47;13.70;;;-2.20;99.90;;;;;;4944081;28;20394;-46
2020/12/04 00:08:17;;;;;;;18.15;12.82;;;-2.20;99.90;;;;;;4944396;28;20449;-47
2020/12/04 00:10:43;;;;;;;17.20;13.07;;;-2.10;99.90;;;;;;4946668;28;20394;-47
2020/12/04 00:13:09;;;;;;;20.23;14.43;;;-2.10;99.90;;;;;;4930277;28;20417;-47
2020/12/04 00:15:34;;;;;;;18.05;13.68;;;-2.10;99.90;;;;;;4944766;28;20406;-48
2020/12/04 00:18:00;;;;;;;19.93;13.83;;;-2.00;99.90;;;;;;4946808;28;21876;-47
2020/12/04 00:20:26;;;;;;;18.97;13.33;;;-1.90;99.90;;;;;;4927962;28;20409;-47
2020/12/04 00:22:52;;;;;;;19.27;14.02;;;-1.90;99.90;;;;;;4945347;28;20421;-45
2020/12/04 00:25:17;;;;;;;18.35;13.70;;;-2.00;99.90;;;;;;4941825;28;20465;-47
2020/12/04 00:27:43;;;;;;;18.43;13.50;;;-2.00;99.90;;;;;;4944730;28;20411;-47
2020/12/04 00:30:08;;;;;;;19.17;14.00;;;-2.00;99.90;;;;;;4944192;28;20414;-47
2020/12/04 00:32:34;;;;;;;18.02;14.18;;;-2.00;99.90;;;;;;4942601;28;20445;-46
2020/12/04 00:35:00;;;;;;;20.53;14.13;;;-1.90;99.90;;;;;;4945912;28;20448;-46
2020/12/04 00:37:25;;;;;;;22.10;15.82;;;-1.90;99.90;;;;;;4944490;28;20410;-46
2020/12/04 00:39:51;;;;;;;20.38;13.20;;;-1.90;99.90;;;;;;4944530;28;20406;-48
2020/12/04 00:42:17;;;;;;;18.08;13.48;;;-1.90;99.90;;;;;;4921752;28;20506;-47
2020/12/04 00:44:43;;;;;;;21.87;14.20;;;-1.90;99.90;;;;;;4943900;28;20758;-48
2020/12/04 00:47:08;;;;;;;19.57;14.03;;;-1.90;99.90;;;;;;4945454;28;20750;-48
2020/12/04 00:49:34;;;;;;;18.88;15.13;;;-1.90;99.90;;;;;;4945047;28;20410;-48
2020/12/04 00:52:00;;;;;;;17.05;12.88;;;-2.00;99.90;;;;;;4948243;28;20460;-48
2020/12/04 00:54:26;;;;;;;20.17;13.93;;;-2.00;99.90;;;;;;4947982;28;20402;-46
2020/12/04 00:56:51;;;;;;;17.27;13.83;;;-2.00;99.90;;;;;;4932170;28;20410;-48
2020/12/04 00:59:33;;;;;;;16.73;13.68;;;-2.10;99.90;;;;;;4947441;28;20594;-46
2020/12/04 01:01:59;;;;;;;16.48;12.57;;;-2.10;99.90;;;;;;4932325;28;20512;-47
2020/12/04 01:04:24;;;;;;;21.08;13.82;;;-2.10;99.90;;;;;;4945998;28;21117;-46
2020/12/04 01:06:50;;;;;;;15.50;12.13;;;-2.10;99.90;;;;;;4931318;29;20453;-46
2020/12/04 01:09:16;;;;;;;19.00;13.60;;;-2.20;99.90;;;;;;4948836;28;20414;-47
2020/12/04 01:11:41;;;;;;;19.67;13.55;;;-2.20;99.90;;;;;;4947757;28;20768;-46
2020/12/04 01:14:07;;;;;;;22.40;14.40;;;-2.20;99.90;;;;;;4947329;28;20402;-47
2020/12/04 01:16:33;;;;;;;17.90;13.35;;;-2.20;99.90;;;;;;4947645;28;20406;-47
2020/12/04 01:18:59;;;;;;;20.60;13.50;;;-2.20;99.90;;;;;;4946634;28;20413;-46
2020/12/04 01:21:24;;;;;;;18.27;13.05;;;-2.10;99.90;;;;;;4948670;28;20421;-48
2020/12/04 01:23:51;;;;;;;17.10;13.53;;;-2.10;99.90;;;;;;4948915;28;20583;-48
2020/12/04 01:26:16;;;;;;;18.83;13.98;;;-2.10;99.90;;;;;;4928354;28;20440;-48
2020/12/04 01:28:42;;;;;;;17.90;13.40;;;-2.10;99.90;;;;;;4945882;28;20438;-48
2020/12/04 01:31:10;;;;;;;20.87;14.43;;;-2.10;99.90;;;;;;4948798;28;20835;-48
2020/12/04 01:33:36;;;;;;;18.90;14.18;;;-2.10;99.90;;;;;;4947506;28;20406;-48
2020/12/04 01:36:02;;;;;;;19.45;14.35;;;-2.00;99.90;;;;;;4931108;28;20433;-46
2020/12/04 01:38:28;;;;;;;20.67;14.15;;;-2.00;99.90;;;;;;4946967;28;20417;-45
2020/12/04 01:41:12;;;;;;;20.43;13.47;;;-2.00;99.90;;;;;;4946327;28;20390;-48
2020/12/04 01:43:37;;;;;;;21.13;14.07;;;-1.90;99.90;;;;;;4958994;28;20481;-46
2020/12/04 01:46:03;;;;;;;22.05;13.93;;;-1.80;99.90;;;;;;4948185;28;20579;-47
2020/12/04 01:48:29;;;;;;;17.70;13.20;;;-1.80;99.90;;;;;;4931085;28;20421;-46
2020/12/04 01:50:54;;;;;;;20.53;13.97;;;-1.80;99.90;;;;;;4948404;28;20773;-46
2020/12/04 01:53:20;;;;;;;19.88;14.13;;;-1.70;99.90;;;;;;4930566;28;20574;-49
2020/12/04 01:55:46;;;;;;;21.25;13.73;;;-1.70;99.90;;;;;;4930211;29;20415;-47
2020/12/04 01:58:13;;;;;;;18.95;13.35;;;-1.60;99.90;;;;;;4947414;28;20441;-48
2020/12/04 02:00:38;;;;;;;21.77;14.35;;;-1.60;99.90;;;;;;4930050;28;20404;-47
2020/12/04 02:03:06;;;;;;;19.15;13.52;;;-1.60;99.90;;;;;;4946964;28;20410;-47
2020/12/04 02:05:32;;;;;;;19.45;14.07;;;-1.60;99.90;;;;;;4931564;28;20455;-45
2020/12/04 02:08:21;;;;;;;18.80;13.63;;;-1.60;99.90;;;;;;4945599;28;20437;-47
2020/12/04 02:10:53;;;;;;;17.40;13.55;;;-1.50;99.90;;;;;;4956629;28;20411;-46
2020/12/04 02:13:19;;;;;;;21.30;14.20;;;-1.50;99.90;;;;;;4941321;28;20689;-47
2020/12/04 02:15:45;;;;;;;20.48;14.05;;;-1.50;99.90;;;;;;4958957;28;20405;-46
2020/12/04 02:18:11;;;;;;;21.85;14.88;;;-1.40;99.90;;;;;;4946482;28;20427;-48
2020/12/04 02:20:36;;;;;;;22.40;15.63;;;-1.40;99.90;;;;;;4959054;28;20437;-45
2020/12/04 02:23:02;;;;;;;21.97;14.23;;;-1.30;99.90;;;;;;4933708;28;20653;-45
2020/12/04 02:25:27;;;;;;;21.00;14.88;;;-1.30;99.90;;;;;;4945818;28;20394;-47
2020/12/04 02:27:53;;;;;;;22.33;15.07;;;-1.30;99.90;;;;;;4947148;28;20402;-45
2020/12/04 02:30:29;;;;;;;20.27;14.77;;;-1.30;99.90;;;;;;4943594;28;20421;-48
2020/12/04 02:32:55;;;;;;;22.83;14.50;;;-1.30;99.90;;;;;;4945260;28;20410;-46
2020/12/04 02:35:20;;;;;;;22.10;15.38;;;-1.30;99.90;;;;;;4947157;28;20773;-48
2020/12/04 02:37:46;;;;;;;19.50;15.45;;;-1.30;99.90;;;;;;4945851;28;20409;-47
2020/12/04 02:40:12;;;;;;;25.20;16.73;;;-1.20;99.90;;;;;;4946826;28;20430;-48
2020/12/04 02:42:40;;;;;;;22.92;16.23;;;-1.20;99.90;;;;;;4946960;28;20413;-48
2020/12/04 02:45:05;;;;;;;22.98;16.77;;;-1.20;99.90;;;;;;4941416;28;20425;-48
2020/12/04 02:47:31;;;;;;;22.27;16.38;;;-1.20;99.90;;;;;;4945471;28;20417;-48
2020/12/04 02:49:57;;;;;;;24.50;17.63;;;-1.30;99.90;;;;;;4947149;28;20414;-48
2020/12/04 02:52:23;;;;;;;23.08;16.25;;;-1.30;99.90;;;;;;4948212;28;20758;-46
2020/12/04 02:54:49;;;;;;;22.27;16.15;;;-1.30;99.90;;;;;;4946854;28;20442;-45
2020/12/04 02:57:14;;;;;;;20.65;15.68;;;-1.20;99.90;;;;;;4947040;28;20513;-46
2020/12/04 02:59:40;;;;;;;24.40;16.90;;;-1.20;99.90;;;;;;4945530;28;20406;-47
2020/12/04 03:02:05;;;;;;;21.73;15.03;;;-1.20;99.90;;;;;;4944214;28;20422;-46
2020/12/04 03:04:31;;;;;;;22.45;16.20;;;-1.20;99.90;;;;;;4947707;28;20467;-46
2020/12/04 03:06:57;;;;;;;24.23;16.93;;;-1.10;99.90;;;;;;4937956;28;20417;-46
2020/12/04 03:09:22;;;;;;;20.80;15.93;;;-1.10;99.90;;;;;;4947793;28;20959;-47
2020/12/04 03:11:48;;;;;;;21.90;15.23;;;-1.10;99.90;;;;;;4942275;28;20421;-47
2020/12/04 03:14:13;;;;;;;21.47;15.30;;;-1.10;99.90;;;;;;4929045;28;20429;-48
2020/12/04 03:16:39;;;;;;;25.10;16.00;;;-1.10;99.90;;;;;;4944921;28;20452;-46
2020/12/04 03:19:05;;;;;;;23.30;15.23;;;-1.00;99.90;;;;;;4945511;28;20414;-47
2020/12/04 03:21:30;;;;;;;22.80;15.43;;;-1.00;99.90;;;;;;4947548;28;20828;-46
2020/12/04 03:23:56;;;;;;;23.02;17.40;;;-1.00;99.90;;;;;;4960125;28;20568;-47
2020/12/04 03:26:22;;;;;;;23.53;15.70;;;-1.00;99.90;;;;;;4929994;28;20413;-47
2020/12/04 03:28:47;;;;;;;22.43;15.50;;;-1.00;99.90;;;;;;4945774;28;20421;-46
2020/12/04 03:31:13;;;;;;;23.95;16.55;;;-1.00;99.90;;;;;;4943155;28;20425;-47
2020/12/04 03:33:39;;;;;;;20.60;15.40;;;-0.90;99.90;;;;;;4940621;28;20400;-47
2020/12/04 03:36:04;;;;;;;26.17;16.50;;;-0.90;99.90;;;;;;4944594;28;20413;-48
2020/12/04 03:38:30;;;;;;;26.90;17.52;;;-1.00;99.90;;;;;;4942763;28;20417;-46
2020/12/04 03:40:55;;;;;;;22.33;16.47;;;-1.00;99.90;;;;;;4938330;28;20465;-47
2020/12/04 03:43:21;;;;;;;24.30;16.70;;;-1.10;99.90;;;;;;4943197;28;20765;-49
2020/12/04 03:45:47;;;;;;;21.45;15.27;;;-1.10;99.90;;;;;;4939914;28;20421;-48
2020/12/04 03:48:12;;;;;;;24.40;16.20;;;-1.10;99.90;;;;;;4945349;28;20417;-45
2020/12/04 03:50:38;;;;;;;23.17;15.97;;;-1.00;99.90;;;;;;4945370;28;20414;-47
2020/12/04 03:53:04;;;;;;;24.70;16.67;;;-1.00;99.90;;;;;;4937384;28;20421;-49
2020/12/04 03:55:29;;;;;;;27.03;17.07;;;-1.00;99.90;;;;;;4946763;28;21028;-49
2020/12/04 03:57:55;;;;;;;22.83;15.87;;;-0.90;99.90;;;;;;4946058;28;20414;-48
2020/12/04 04:00:22;;;;;;;21.85;15.50;;;-1.00;99.90;;;;;;4945121;28;20402;-48
2020/12/04 04:02:48;;;;;;;24.10;16.00;;;-0.90;99.90;;;;;;4945832;28;20416;-48
2020/12/04 04:05:13;;;;;;;25.55;16.50;;;-0.90;99.90;;;;;;4945107;28;20417;-47
2020/12/04 04:07:39;;;;;;;22.90;16.37;;;-0.90;99.90;;;;;;4945911;28;20413;-46
2020/12/04 04:10:05;;;;;;;21.80;15.48;;;-0.90;99.90;;;;;;4946251;28;20413;-49
2020/12/04 04:12:31;;;;;;;21.48;15.27;;;-0.90;99.90;;;;;;4943676;28;20604;-46
2020/12/04 04:14:56;;;;;;;27.00;16.70;;;-0.80;99.90;;;;;;4943992;28;20427;-49
2020/12/04 04:17:22;;;;;;;20.53;15.30;;;-0.90;99.90;;;;;;4941177;28;20422;-49
2020/12/04 04:19:47;;;;;;;21.42;15.23;;;-0.80;99.90;;;;;;4944572;28;20421;-45
2020/12/04 04:22:13;;;;;;;28.50;16.43;;;-0.80;99.90;;;;;;4936570;28;20926;-46
2020/12/04 04:24:39;;;;;;;19.87;15.60;;;-0.80;99.90;;;;;;4946869;28;20434;-45
2020/12/04 04:27:04;;;;;;;23.48;16.45;;;-0.80;99.90;;;;;;4949703;28;20464;-45
2020/12/04 04:29:30;;;;;;;24.83;16.40;;;-0.80;99.90;;;;;;4947880;28;20410;-45
2020/12/04 04:31:55;;;;;;;21.88;15.77;;;-0.80;99.90;;;;;;4945436;28;20408;-46
2020/12/04 04:34:21;;;;;;;25.87;16.57;;;-0.80;99.90;;;;;;4943893;28;20947;-49
2020/12/04 04:36:47;;;;;;;22.63;15.50;;;-0.70;99.90;;;;;;4950420;28;20496;-54
2020/12/04 04:39:12;;;;;;;22.90;15.18;;;-0.80;99.90;;;;;;4933675;28;20418;-47
2020/12/04 04:41:38;;;;;;;20.33;14.87;;;-0.80;99.90;;;;;;4932365;28;20401;-49
2020/12/04 04:44:04;;;;;;;23.83;17.40;;;-0.80;99.90;;;;;;4949415;28;20410;-46
2020/12/04 04:46:54;;;;;;;21.10;14.32;;;-0.80;99.90;;;;;;4948469;28;20568;-44
2020/12/04 04:49:27;;;;;;;18.15;14.45;;;-0.80;99.90;;;;;;4941961;28;20829;-49
2020/12/04 04:51:54;;;;;;;19.33;15.00;;;-0.80;99.90;;;;;;4948857;28;20840;-47
2020/12/04 04:54:19;;;;;;;20.20;14.93;;;-0.70;99.90;;;;;;4948911;28;20409;-46
2020/12/04 04:56:49;;;;;;;23.67;14.83;;;-0.70;99.90;;;;;;4947842;28;20464;-47
2020/12/04 04:59:16;;;;;;;19.20;14.00;;;-0.70;99.90;;;;;;4946630;28;20777;-46
2020/12/04 05:01:41;;;;;;;21.15;14.80;;;-0.70;99.90;;;;;;4945054;28;20464;-45
2020/12/04 05:04:07;;;;;;;24.05;14.60;;;-0.60;99.90;;;;;;4925998;28;20416;-46
2020/12/04 05:06:36;;;;;;;24.30;15.97;;;-0.50;99.90;;;;;;4948727;28;20402;-45
2020/12/04 05:09:05;;;;;;;20.03;15.00;;;-0.50;99.90;;;;;;4946914;28;20819;-46
2020/12/04 05:11:32;;;;;;;21.63;14.57;;;-0.50;99.90;;;;;;4948475;28;20431;-46
2020/12/04 05:14:17;;;;;;;19.40;15.30;;;-0.50;99.90;;;;;;4947357;28;20428;-46
2020/12/04 05:16:45;;;;;;;19.93;15.10;;;-0.60;99.90;;;;;;4946274;28;20430;-46
2020/12/04 05:19:11;;;;;;;19.83;13.63;;;-0.60;99.90;;;;;;4939860;28;20482;-45
2020/12/04 05:21:37;;;;;;;20.17;14.10;;;-0.60;99.90;;;;;;4945597;28;20820;-45
2020/12/04 05:24:02;;;;;;;20.75;15.13;;;-0.60;99.90;;;;;;4947382;28;20433;-46
2020/12/04 05:26:35;;;;;;;19.45;14.80;;;-0.50;99.90;;;;;;4947500;28;20948;-46
2020/12/04 05:29:02;;;;;;;21.45;14.73;;;-0.50;99.90;;;;;;4962359;28;21430;-46
2020/12/04 05:31:32;;;;;;;19.42;14.57;;;-0.50;99.90;;;;;;4946848;28;20450;-44
2020/12/04 05:33:58;;;;;;;20.65;14.10;;;-0.50;99.90;;;;;;4949004;28;20418;-45
2020/12/04 05:36:28;;;;;;;21.45;14.57;;;-0.50;99.90;;;;;;4944746;28;20410;-46
2020/12/04 05:38:54;;;;;;;18.38;13.85;;;-0.40;99.90;;;;;;4937073;28;20817;-46
2020/12/04 05:41:20;;;;;;;19.38;14.00;;;-0.40;99.90;;;;;;4948441;28;20552;-44
2020/12/04 05:43:46;;;;;;;20.92;13.20;;;-0.40;99.90;;;;;;4945294;28;20781;-46
2020/12/04 05:46:23;;;;;;;16.87;12.97;;;-0.30;99.90;;;;;;4962282;28;20932;-45
2020/12/04 05:49:00;;;;;;;19.70;14.20;;;-0.30;99.90;;;;;;4945150;28;20478;-45
2020/12/04 05:51:27;;;;;;;19.77;14.03;;;-0.30;99.90;;;;;;4942336;28;20402;-44
2020/12/04 05:53:53;;;;;;;20.48;13.88;;;-0.30;99.90;;;;;;4963541;28;20773;-47
2020/12/04 05:56:19;;;;;;;20.20;14.10;;;-0.30;99.90;;;;;;4944266;28;20410;-46
2020/12/04 05:58:48;;;;;;;20.33;13.35;;;-0.20;99.90;;;;;;4947490;28;20402;-45
2020/12/04 06:01:17;;;;;;;17.03;12.10;;;-0.20;99.90;;;;;;4928687;28;20844;-45
2020/12/04 06:03:48;;;;;;;17.38;12.65;;;-0.20;99.90;;;;;;4946889;28;20446;-46
2020/12/04 06:06:17;;;;;;;18.48;13.60;;;-0.20;99.90;;;;;;4945942;28;20829;-47
2020/12/04 06:08:42;;;;;;;16.98;12.90;;;-0.20;99.90;;;;;;4963731;28;20446;-45
